createdAt,value
2023-01-10T00:01:18.385Z,65.57
2023-01-10T00:08:19.984Z,65.36
2023-01-10T00:15:21.790Z,65.79
2023-01-10T00:22:25.194Z,65.85
2023-01-10T00:29:27.900Z,66.85
2023-01-10T00:36:29.552Z,66.69
2023-01-10T00:43:49.818Z,66.84
2023-01-10T00:50:51.561Z,67.14
2023-01-10T00:57:53.252Z,67.87
2023-01-10T01:04:54.886Z,67.60
2023-01-10T01:11:56.944Z,69.46
2023-01-10T01:18:58.582Z,68.77
2023-01-10T01:26:00.290Z,67.56
2023-01-10T01:33:01.976Z,66.68
2023-01-10T01:40:04.297Z,67.53
2023-01-10T01:47:07.642Z,67.56
2023-01-10T01:54:11.995Z,67.80
2023-01-10T02:01:13.670Z,67.34
2023-01-10T02:08:15.424Z,68.85
2023-01-10T02:15:17.110Z,67.89
2023-01-10T02:22:41.741Z,68.06
2023-01-10T02:29:46.316Z,68.48
2023-01-10T02:36:57.309Z,69.30
2023-01-10T02:44:10.627Z,68.74
2023-01-10T02:51:28.741Z,70.09
2023-01-10T02:58:58.328Z,68.96
2023-01-10T03:06:07.631Z,69.91
2023-01-10T03:13:19.675Z,69.57
2023-01-10T03:20:21.314Z,69.62
2023-01-10T03:27:45.116Z,70.45
2023-01-10T03:34:46.770Z,70.99
2023-01-10T03:41:58.668Z,70.60
2023-01-10T03:49:00.288Z,70.95
2023-01-10T03:56:01.952Z,71.23
2023-01-10T04:03:03.643Z,72.00
2023-01-10T04:10:05.979Z,71.43
2023-01-10T04:17:07.753Z,71.90
2023-01-10T04:24:09.448Z,71.82
2023-01-10T04:31:11.077Z,72.88
2023-01-10T04:38:12.805Z,73.65
2023-01-10T04:45:17.640Z,73.57
2023-01-10T04:52:19.270Z,71.97
2023-01-10T04:59:20.927Z,72.13
2023-01-10T05:06:23.241Z,72.53
2023-01-10T05:13:26.204Z,72.86
2023-01-10T05:20:27.855Z,73.37
2023-01-10T05:27:29.490Z,73.52
2023-01-10T05:34:31.314Z,73.37
2023-01-10T05:41:33.009Z,73.80
2023-01-10T05:48:34.692Z,74.75
2023-01-10T05:55:36.304Z,73.65
2023-01-10T06:02:38.105Z,74.54
2023-01-10T06:09:39.846Z,74.59
2023-01-10T06:16:41.973Z,74.24
2023-01-10T06:23:43.648Z,74.36
2023-01-10T06:30:45.321Z,74.32
2023-01-10T06:37:47.001Z,73.82
2023-01-10T06:44:48.623Z,73.50
2023-01-10T06:51:50.303Z,73.01
2023-01-10T06:58:52.053Z,72.57
2023-01-10T07:05:53.771Z,73.52
2023-01-10T07:12:55.791Z,73.07
2023-01-10T07:19:57.512Z,73.40
2023-01-10T07:26:59.118Z,72.80
2023-01-10T07:34:00.854Z,72.80
2023-01-10T07:41:03.516Z,72.93
2023-01-10T07:48:05.376Z,72.41
2023-01-10T07:55:07.304Z,72.22
2023-01-10T08:02:10.103Z,72.65
2023-01-10T08:09:11.840Z,72.72
2023-01-10T08:16:15.204Z,73.02
2023-01-10T08:23:17.457Z,72.42
2023-01-10T08:30:19.183Z,71.97
2023-01-10T08:37:20.740Z,72.50
2023-01-10T08:44:22.380Z,72.07
2023-01-10T08:51:23.972Z,71.50
2023-01-10T08:58:25.610Z,70.57
2023-01-10T09:05:28.338Z,71.35
2023-01-10T09:12:49.121Z,71.44
2023-01-10T09:19:50.870Z,70.50
2023-01-10T09:26:52.539Z,68.93
2023-01-10T09:33:54.303Z,69.09
2023-01-10T09:41:16.842Z,68.04
2023-01-10T09:48:29.162Z,67.80
2023-01-10T09:55:34.325Z,67.65
2023-01-10T10:02:37.606Z,68.57
2023-01-10T10:09:39.226Z,68.56
2023-01-10T10:16:55.906Z,68.22
2023-01-10T10:24:22.092Z,68.69
2023-01-10T10:31:51.513Z,68.33
2023-01-10T10:38:53.537Z,68.30
2023-01-10T10:45:57.563Z,67.47
2023-01-10T10:53:00.750Z,67.29
2023-01-10T11:00:02.662Z,65.46
2023-01-10T11:07:04.313Z,64.83
2023-01-10T11:14:07.206Z,65.28
2023-01-10T11:21:11.928Z,64.51
2023-01-10T11:28:13.618Z,64.56
2023-01-10T11:35:37.480Z,63.40
2023-01-10T11:42:39.091Z,64.11
2023-01-10T11:49:41.373Z,62.59
2023-01-10T11:56:43.579Z,62.29
2023-01-10T12:03:45.295Z,61.36
2023-01-10T12:10:46.900Z,59.61
2023-01-10T12:17:48.476Z,60.69
2023-01-10T12:24:50.102Z,61.21
2023-01-10T12:31:53.510Z,59.82
2023-01-10T12:39:06.541Z,58.57
2023-01-10T12:47:05.376Z,58.92
2023-01-10T12:54:04.096Z,58.93
2023-01-10T13:01:05.929Z,59.43
2023-01-10T13:08:11.999Z,59.35
2023-01-10T13:15:37.995Z,57.79
2023-01-10T13:22:39.578Z,57.28
2023-01-10T13:29:41.899Z,56.93
2023-01-10T13:36:57.558Z,57.24
2023-01-10T13:44:07.467Z,58.67
2023-01-10T13:51:17.902Z,58.62
2023-01-10T13:58:42.538Z,58.88
2023-01-10T14:05:48.285Z,59.41
2023-01-10T14:12:51.928Z,58.81
2023-01-10T14:20:06.464Z,59.29
2023-01-10T14:27:14.080Z,59.13
2023-01-10T14:34:36.742Z,59.44
2023-01-10T14:41:43.483Z,59.09
2023-01-10T14:48:51.592Z,61.22
2023-01-10T14:55:53.481Z,60.41
2023-01-10T15:02:55.219Z,60.76
2023-01-10T15:09:58.737Z,60.69
2023-01-10T15:17:02.465Z,59.74
2023-01-10T15:24:33.061Z,60.56
2023-01-10T15:31:38.368Z,60.10
2023-01-10T15:38:44.336Z,60.65
2023-01-10T15:45:49.295Z,59.64
2023-01-10T15:52:52.296Z,60.40
2023-01-10T15:59:54.668Z,59.50
2023-01-10T16:07:06.741Z,60.72
2023-01-10T16:14:08.874Z,60.51
2023-01-10T16:21:11.521Z,60.85
2023-01-10T16:28:14.807Z,61.38
2023-01-10T16:35:20.123Z,61.08
2023-01-10T16:42:40.431Z,60.81
2023-01-10T16:49:42.067Z,61.81
2023-01-10T16:56:45.186Z,61.90
2023-01-10T17:03:47.040Z,61.93
2023-01-10T17:10:56.646Z,62.22
2023-01-10T17:17:59.033Z,62.21
2023-01-10T17:25:00.683Z,62.09
2023-01-10T17:32:02.381Z,62.22
2023-01-10T17:39:04.132Z,62.16
2023-01-10T17:46:06.069Z,62.64
2023-01-10T17:53:07.749Z,62.43
2023-01-10T18:00:09.986Z,62.84
2023-01-10T18:07:13.041Z,62.75
2023-01-10T18:14:33.468Z,62.49
2023-01-10T18:21:35.110Z,62.84
2023-01-10T18:28:43.527Z,63.27
2023-01-10T18:35:47.430Z,62.93
2023-01-10T18:42:53.375Z,62.89
2023-01-10T18:49:54.965Z,62.39
2023-01-10T18:56:56.625Z,63.73
2023-01-10T19:03:58.328Z,63.64
2023-01-10T19:11:12.984Z,63.66
2023-01-10T19:18:15.947Z,64.36
2023-01-10T19:25:17.639Z,65.35
2023-01-10T19:32:19.267Z,63.98
2023-01-10T19:39:22.443Z,64.43
2023-01-10T19:46:26.913Z,64.37
2023-01-10T19:53:30.744Z,65.25
2023-01-10T20:00:34.419Z,63.92
2023-01-10T20:07:36.023Z,64.80
2023-01-10T20:14:37.639Z,64.40
2023-01-10T20:21:40.035Z,65.29
2023-01-10T20:28:41.662Z,64.48
2023-01-10T20:35:44.176Z,64.01
2023-01-10T20:42:49.778Z,64.56
2023-01-10T20:49:51.387Z,64.90
2023-01-10T20:56:53.348Z,65.09
2023-01-10T21:03:55.038Z,65.12
2023-01-10T21:10:57.142Z,65.20
2023-01-10T21:17:58.779Z,64.64
2023-01-10T21:25:00.416Z,65.78
2023-01-10T21:32:02.338Z,65.11
2023-01-10T21:39:04.034Z,64.98
2023-01-10T21:46:05.916Z,65.25
2023-01-10T21:53:07.619Z,64.78
2023-01-10T22:00:09.733Z,65.53
2023-01-10T22:07:14.296Z,66.63
2023-01-10T22:14:15.881Z,65.32
2023-01-10T22:21:19.617Z,65.66
2023-01-10T22:28:21.286Z,65.66
2023-01-10T22:35:26.056Z,65.17
2023-01-10T22:42:27.673Z,65.36
2023-01-10T22:49:29.324Z,66.22
2023-01-10T22:56:30.957Z,65.02
2023-01-10T23:03:33.112Z,65.86
2023-01-10T23:10:34.733Z,64.89
2023-01-10T23:17:36.382Z,63.79
2023-01-10T23:24:38.464Z,64.43
2023-01-10T23:31:40.120Z,63.72
2023-01-10T23:38:41.730Z,62.82
2023-01-10T23:45:43.868Z,63.63
2023-01-10T23:52:45.552Z,63.45
2023-01-10T23:59:47.105Z,63.06
